createdAt,value
2022-11-14T00:02:31.306Z,8.77
2022-11-14T00:05:18.821Z,12.07
2022-11-14T00:08:06.707Z,11.90
2022-11-14T00:10:58.582Z,11.70
2022-11-14T00:13:46.983Z,12.07
2022-11-14T00:16:34.732Z,13.47
2022-11-14T00:19:22.403Z,11.30
2022-11-14T00:22:09.576Z,13.67
2022-11-14T00:24:57.142Z,12.27
2022-11-14T00:27:46.346Z,12.03
2022-11-14T00:30:33.596Z,11.30
2022-11-14T00:33:21.799Z,13.47
2022-11-14T00:36:09.530Z,11.83
2022-11-14T00:38:59.353Z,10.80
2022-11-14T00:41:47.672Z,10.83
2022-11-14T00:44:35.848Z,10.33
2022-11-14T00:47:22.983Z,10.40
2022-11-14T00:50:19.558Z,10.57
2022-11-14T00:53:06.553Z,10.53
2022-11-14T00:55:56.395Z,10.33
2022-11-14T00:58:43.682Z,10.20
2022-11-14T01:01:32.781Z,10.37
2022-11-14T01:04:19.625Z,11.03
2022-11-14T01:07:07.118Z,10.27
2022-11-14T01:09:54.716Z,10.47
2022-11-14T01:12:42.297Z,11.33
2022-11-14T01:15:30.037Z,12.10
2022-11-14T01:18:21.835Z,12.87
2022-11-14T01:21:12.300Z,12.33
2022-11-14T01:24:00.029Z,11.27
2022-11-14T01:26:47.347Z,12.50
2022-11-14T01:29:35.244Z,14.13
2022-11-14T01:32:23.138Z,14.37
2022-11-14T01:35:11.735Z,14.07
2022-11-14T01:37:58.752Z,13.03
2022-11-14T01:40:47.024Z,14.30
2022-11-14T01:43:36.781Z,13.20
2022-11-14T01:46:26.565Z,13.30
2022-11-14T01:49:20.154Z,12.57
2022-11-14T01:52:12.442Z,13.00
2022-11-14T01:55:06.947Z,13.53
2022-11-14T01:57:54.162Z,13.03
2022-11-14T02:00:42.048Z,12.37
2022-11-14T02:03:34.817Z,13.73
2022-11-14T02:06:24.129Z,12.93
2022-11-14T02:09:12.823Z,12.30
2022-11-14T02:12:03.037Z,11.67
2022-11-14T02:14:54.010Z,12.83
2022-11-14T02:17:42.562Z,11.97
2022-11-14T02:20:36.161Z,12.77
2022-11-14T02:23:28.331Z,13.13
2022-11-14T02:26:18.927Z,11.13
2022-11-14T02:29:08.958Z,11.87
2022-11-14T02:31:57.374Z,11.50
2022-11-14T02:34:45.346Z,10.80
2022-11-14T02:37:33.885Z,11.67
2022-11-14T02:40:21.447Z,12.73
2022-11-14T02:43:09.456Z,12.63
2022-11-14T02:45:59.176Z,12.87
2022-11-14T02:48:50.589Z,12.73
2022-11-14T02:51:37.267Z,11.60
2022-11-14T02:54:25.775Z,12.10
2022-11-14T02:57:13.045Z,12.07
2022-11-14T03:00:00.042Z,12.50
2022-11-14T03:02:47.470Z,11.67
2022-11-14T03:05:34.268Z,12.47
2022-11-14T03:08:21.437Z,12.80
2022-11-14T03:11:11.316Z,12.47
2022-11-14T03:13:58.623Z,12.50
2022-11-14T03:16:46.191Z,12.30
2022-11-14T03:19:34.065Z,13.40
2022-11-14T03:22:21.489Z,12.60
2022-11-14T03:25:09.974Z,12.30
2022-11-14T03:27:58.998Z,13.30
2022-11-14T03:30:48.984Z,12.50
2022-11-14T03:33:36.518Z,12.17
2022-11-14T03:36:23.781Z,12.47
2022-11-14T03:39:11.645Z,11.83
2022-11-14T03:41:58.920Z,11.23
2022-11-14T03:44:47.591Z,11.83
2022-11-14T03:47:34.760Z,12.83
2022-11-14T03:50:21.892Z,12.20
2022-11-14T03:53:09.462Z,12.63
2022-11-14T03:55:56.746Z,12.87
2022-11-14T03:58:44.219Z,12.30
2022-11-14T04:01:32.735Z,11.33
2022-11-14T04:04:20.247Z,13.33
2022-11-14T04:07:08.034Z,11.47
2022-11-14T04:09:55.606Z,12.03
2022-11-14T04:12:43.082Z,11.90
2022-11-14T04:15:30.607Z,11.43
2022-11-14T04:18:18.826Z,11.77
2022-11-14T04:21:06.140Z,10.97
2022-11-14T04:23:53.650Z,12.57
2022-11-14T04:26:40.824Z,11.97
2022-11-14T04:29:28.003Z,11.83
2022-11-14T04:32:15.335Z,11.43
2022-11-14T04:35:04.019Z,11.63
2022-11-14T04:37:51.522Z,11.90
2022-11-14T04:40:39.233Z,11.63
2022-11-14T04:43:26.566Z,12.17
2022-11-14T04:46:13.412Z,11.37
2022-11-14T04:49:01.980Z,12.73
2022-11-14T04:51:51.063Z,11.67
2022-11-14T04:54:38.736Z,11.57
2022-11-14T04:57:26.610Z,11.43
2022-11-14T05:00:15.831Z,11.43
2022-11-14T05:03:02.885Z,11.83
2022-11-14T05:05:49.888Z,11.33
2022-11-14T05:08:38.674Z,12.27
2022-11-14T05:11:29.152Z,11.70
2022-11-14T05:14:18.225Z,11.43
2022-11-14T05:17:05.526Z,11.03
2022-11-14T05:19:53.010Z,12.20
2022-11-14T05:22:40.280Z,11.57
2022-11-14T05:25:28.592Z,12.03
2022-11-14T05:28:15.829Z,11.03
2022-11-14T05:31:04.842Z,11.37
2022-11-14T05:33:52.633Z,11.40
2022-11-14T05:36:40.060Z,11.93
2022-11-14T05:39:27.488Z,10.77
2022-11-14T05:42:16.475Z,10.77
2022-11-14T05:45:04.271Z,10.57
2022-11-14T05:47:54.164Z,10.27
2022-11-14T05:50:42.531Z,10.13
2022-11-14T05:53:31.436Z,9.90
2022-11-14T05:56:19.592Z,10.00
2022-11-14T05:59:07.909Z,10.83
2022-11-14T06:01:55.435Z,9.97
2022-11-14T06:04:42.839Z,10.27
2022-11-14T06:07:30.189Z,10.33
2022-11-14T06:10:17.917Z,10.97
2022-11-14T06:13:05.724Z,10.60
2022-11-14T06:15:54.956Z,9.87
2022-11-14T06:18:42.649Z,10.50
2022-11-14T06:21:30.195Z,9.40
2022-11-14T06:24:17.548Z,9.90
2022-11-14T06:27:04.883Z,9.87
2022-11-14T06:29:53.083Z,10.73
2022-11-14T06:32:41.913Z,10.20
2022-11-14T06:35:29.496Z,10.43
2022-11-14T06:38:16.976Z,11.23
2022-11-14T06:41:05.245Z,10.10
2022-11-14T06:43:54.921Z,9.43
2022-11-14T06:46:49.415Z,10.60
2022-11-14T06:49:40.669Z,10.07
2022-11-14T06:52:28.615Z,10.63
2022-11-14T06:55:16.960Z,9.47
2022-11-14T06:58:06.998Z,8.87
2022-11-14T07:00:54.244Z,9.07
2022-11-14T07:03:42.144Z,9.47
2022-11-14T07:06:32.437Z,10.63
2022-11-14T07:09:19.379Z,9.83
2022-11-14T07:12:06.506Z,10.73
2022-11-14T07:14:53.907Z,10.80
2022-11-14T07:17:41.153Z,9.87
2022-11-14T07:20:28.207Z,9.47
2022-11-14T07:23:22.696Z,10.33
2022-11-14T07:26:12.781Z,10.70
2022-11-14T07:29:02.557Z,11.00
2022-11-14T07:31:50.190Z,10.00
2022-11-14T07:34:37.063Z,9.93
2022-11-14T07:37:24.527Z,10.73
2022-11-14T07:40:14.818Z,11.50
2022-11-14T07:43:03.236Z,12.07
2022-11-14T07:45:51.064Z,11.60
2022-11-14T07:48:39.005Z,11.47
2022-11-14T07:51:26.789Z,12.27
2022-11-14T07:54:14.465Z,11.93
2022-11-14T07:57:03.739Z,11.03
2022-11-14T07:59:50.965Z,11.80
2022-11-14T08:02:38.285Z,11.40
2022-11-14T08:05:25.703Z,12.60
2022-11-14T08:08:12.809Z,14.17
2022-11-14T08:11:02.334Z,13.77
2022-11-14T08:13:50.955Z,12.97
2022-11-14T08:16:38.089Z,13.70
2022-11-14T08:19:26.117Z,14.10
2022-11-14T08:22:13.372Z,14.97
2022-11-14T08:25:00.364Z,15.67
2022-11-14T08:27:48.570Z,15.67
2022-11-14T08:30:37.424Z,16.93
2022-11-14T08:33:24.715Z,18.37
2022-11-14T08:36:12.797Z,17.50
2022-11-14T08:39:02.227Z,19.03
2022-11-14T08:41:50.116Z,18.47
2022-11-14T08:44:37.476Z,20.43
2022-11-14T08:47:40.481Z,21.07
2022-11-14T08:50:27.468Z,22.43
2022-11-14T08:53:14.840Z,22.83
2022-11-14T08:56:03.146Z,23.30
2022-11-14T08:58:50.430Z,23.97
2022-11-14T09:01:37.797Z,24.13
2022-11-14T09:04:27.122Z,23.17
2022-11-14T09:07:15.207Z,23.27
2022-11-14T09:10:02.674Z,24.37
2022-11-14T09:12:57.290Z,24.73
2022-11-14T09:15:45.641Z,23.40
2022-11-14T09:18:34.266Z,24.70
2022-11-14T09:21:22.866Z,23.83
2022-11-14T09:24:10.142Z,24.77
2022-11-14T09:26:57.503Z,26.27
2022-11-14T09:29:44.549Z,25.00
2022-11-14T09:32:32.187Z,25.67
2022-11-14T09:35:20.662Z,25.00
2022-11-14T09:38:11.995Z,27.40
2022-11-14T09:41:11.944Z,26.07
2022-11-14T09:44:26.101Z,25.60
2022-11-14T09:47:20.874Z,24.83
2022-11-14T09:50:14.524Z,26.97
2022-11-14T09:53:06.925Z,28.83
2022-11-14T09:55:55.730Z,26.57
2022-11-14T09:58:43.791Z,26.13
2022-11-14T10:01:42.973Z,27.23
2022-11-14T10:04:45.384Z,28.13
2022-11-14T10:07:45.518Z,25.77
2022-11-14T10:10:46.130Z,26.47
2022-11-14T10:13:51.451Z,27.77
2022-11-14T10:16:55.606Z,26.60
2022-11-14T10:19:53.024Z,25.23
2022-11-14T10:23:01.565Z,26.13
2022-11-14T10:25:56.114Z,23.83
2022-11-14T10:29:05.291Z,25.60
2022-11-14T10:32:02.615Z,23.40
2022-11-14T10:34:56.894Z,24.00
2022-11-14T10:37:54.652Z,24.13
2022-11-14T10:40:44.203Z,23.40
2022-11-14T10:43:37.209Z,23.27
2022-11-14T10:46:30.514Z,24.30
2022-11-14T10:49:21.354Z,21.87
2022-11-14T10:52:14.809Z,23.93
2022-11-14T10:55:08.011Z,25.23
2022-11-14T10:57:55.022Z,23.37
2022-11-14T11:00:42.764Z,23.53
2022-11-14T11:03:46.405Z,23.70
2022-11-14T11:06:33.766Z,23.20
2022-11-14T11:09:45.251Z,23.07
2022-11-14T11:12:46.375Z,24.27
2022-11-14T11:15:40.891Z,23.00
2022-11-14T11:18:31.351Z,22.77
2022-11-14T11:21:22.162Z,23.07
2022-11-14T11:24:10.674Z,21.90
2022-11-14T11:27:22.850Z,21.07
2022-11-14T11:30:21.081Z,20.07
2022-11-14T11:33:18.085Z,20.47
2022-11-14T11:36:08.797Z,21.03
2022-11-14T11:38:57.782Z,21.53
2022-11-14T11:45:00.003Z,20.80
2022-11-14T11:47:55.349Z,19.03
2022-11-14T11:50:43.634Z,18.57
2022-11-14T11:53:36.722Z,19.13
2022-11-14T11:56:29.161Z,18.43
2022-11-14T11:59:29.007Z,17.13
2022-11-14T12:02:24.526Z,16.17
2022-11-14T12:05:16.730Z,17.03
2022-11-14T12:08:07.944Z,15.70
2022-11-14T12:10:57.563Z,12.90
2022-11-14T12:14:14.874Z,12.43
2022-11-14T12:17:37.654Z,12.37
2022-11-14T12:20:47.505Z,12.50
2022-11-14T12:24:07.757Z,11.40
2022-11-14T12:27:13.738Z,12.30
2022-11-14T12:30:17.257Z,11.37
2022-11-14T12:33:11.830Z,11.40
2022-11-14T12:36:01.932Z,11.60
2022-11-14T12:38:54.001Z,11.27
2022-11-14T12:41:43.176Z,11.70
2022-11-14T12:44:37.054Z,10.77
2022-11-14T12:47:27.411Z,11.57
2022-11-14T12:50:40.988Z,11.40
2022-11-14T12:53:45.400Z,11.07
2022-11-14T12:56:57.521Z,10.77
2022-11-14T13:00:02.603Z,10.93
2022-11-14T13:03:15.898Z,9.77
2022-11-14T13:06:07.915Z,9.97
2022-11-14T13:09:44.457Z,11.33
2022-11-14T13:12:54.179Z,10.33
2022-11-14T13:16:09.061Z,11.93
2022-11-14T13:19:34.916Z,11.10
2022-11-14T13:22:39.866Z,11.63
2022-11-14T13:25:28.186Z,11.70
2022-11-14T13:28:46.812Z,12.57
2022-11-14T13:31:47.613Z,12.60
2022-11-14T13:34:45.018Z,11.47
2022-11-14T13:37:51.359Z,11.50
2022-11-14T13:40:45.954Z,12.27
2022-11-14T13:43:49.384Z,12.33
2022-11-14T13:46:56.231Z,12.90
2022-11-14T13:49:58.635Z,12.53
2022-11-14T13:52:49.767Z,12.03
2022-11-14T13:55:50.792Z,11.37
2022-11-14T13:59:01.961Z,11.03
2022-11-14T14:02:11.006Z,11.60
2022-11-14T14:05:13.531Z,11.50
2022-11-14T14:08:16.180Z,11.93
2022-11-14T14:11:24.867Z,12.20
2022-11-14T14:14:29.168Z,11.70
2022-11-14T14:17:22.157Z,11.03
2022-11-14T14:20:23.368Z,10.90
2022-11-14T14:23:28.764Z,10.50
2022-11-14T14:26:26.064Z,10.93
2022-11-14T14:29:24.377Z,9.03
2022-11-14T14:32:14.570Z,9.00
2022-11-14T14:35:02.026Z,10.37
2022-11-14T14:37:54.059Z,12.70
2022-11-14T14:40:43.928Z,15.13
2022-11-14T14:43:34.977Z,15.17
2022-11-14T14:46:31.972Z,17.63
2022-11-14T14:49:23.612Z,17.87
2022-11-14T14:52:22.519Z,17.50
2022-11-14T14:55:21.763Z,18.00
2022-11-14T14:58:22.195Z,19.00
2022-11-14T15:01:14.421Z,19.23
2022-11-14T15:04:06.537Z,17.87
2022-11-14T15:06:56.273Z,18.27
2022-11-14T15:09:53.542Z,18.80
2022-11-14T15:12:43.995Z,18.73
2022-11-14T15:15:31.943Z,18.63
2022-11-14T15:18:25.955Z,19.70
2022-11-14T15:21:18.285Z,17.87
2022-11-14T15:24:16.213Z,19.87
2022-11-14T15:27:06.859Z,19.77
2022-11-14T15:30:03.103Z,19.23
2022-11-14T15:32:52.283Z,18.33
2022-11-14T15:35:41.171Z,17.97
2022-11-14T15:38:43.604Z,16.97
2022-11-14T15:41:32.407Z,19.33
2022-11-14T15:44:33.312Z,18.67
2022-11-14T15:47:27.140Z,19.03
2022-11-14T15:50:29.086Z,18.57
2022-11-14T15:53:23.327Z,19.97
2022-11-14T15:56:14.192Z,18.83
2022-11-14T15:59:01.957Z,19.53
2022-11-14T16:01:53.335Z,19.80
2022-11-14T16:04:47.265Z,19.30
2022-11-14T16:07:35.624Z,18.93
2022-11-14T16:10:25.260Z,18.80
2022-11-14T16:13:12.787Z,19.30
2022-11-14T16:16:00.210Z,19.47
2022-11-14T16:18:47.861Z,19.70
2022-11-14T16:21:38.823Z,18.17
2022-11-14T16:24:33.481Z,18.77
2022-11-14T16:27:21.178Z,19.27
2022-11-14T16:30:11.842Z,18.30
2022-11-14T16:33:00.475Z,19.97
2022-11-14T16:35:47.908Z,19.00
2022-11-14T16:38:36.920Z,18.00
2022-11-14T16:41:25.265Z,18.53
2022-11-14T16:44:17.301Z,18.47
2022-11-14T16:47:05.034Z,18.90
2022-11-14T16:49:52.974Z,20.03
2022-11-14T16:52:40.510Z,21.27
2022-11-14T16:55:29.143Z,19.87
2022-11-14T16:58:16.521Z,18.53
2022-11-14T17:01:05.664Z,18.97
2022-11-14T17:03:54.860Z,18.50
2022-11-14T17:06:41.899Z,19.23
2022-11-14T17:09:30.631Z,20.27
2022-11-14T17:12:19.748Z,19.80
2022-11-14T17:15:08.007Z,19.27
2022-11-14T17:17:55.306Z,19.00
2022-11-14T17:20:43.882Z,18.23
2022-11-14T17:23:31.238Z,19.67
2022-11-14T17:26:18.539Z,18.40
2022-11-14T17:29:08.199Z,18.87
2022-11-14T17:31:56.382Z,19.23
2022-11-14T17:34:43.975Z,17.87
2022-11-14T17:37:31.470Z,20.00
2022-11-14T17:40:19.895Z,20.13
2022-11-14T17:43:08.225Z,19.00
2022-11-14T17:45:57.817Z,19.73
2022-11-14T17:48:45.786Z,19.47
2022-11-14T17:51:33.529Z,19.27
2022-11-14T17:54:21.184Z,16.63
2022-11-14T17:57:08.772Z,17.60
2022-11-14T17:59:57.600Z,19.37
2022-11-14T18:02:46.458Z,17.20
2022-11-14T18:05:33.865Z,17.93
2022-11-14T18:08:21.677Z,17.47
2022-11-14T18:11:11.730Z,18.23
2022-11-14T18:13:59.787Z,17.83
2022-11-14T18:17:11.259Z,17.63
2022-11-14T18:19:56.484Z,17.13
2022-11-14T18:22:44.231Z,15.63
2022-11-14T18:25:31.684Z,17.20
2022-11-14T18:28:19.627Z,17.20
2022-11-14T18:31:08.631Z,16.90
2022-11-14T18:33:56.627Z,17.27
2022-11-14T18:36:45.269Z,16.77
2022-11-14T18:39:32.448Z,17.43
2022-11-14T18:42:19.808Z,18.23
2022-11-14T18:45:07.897Z,16.47
2022-11-14T18:47:54.748Z,17.00
2022-11-14T18:50:41.974Z,17.77
2022-11-14T18:53:33.664Z,17.60
2022-11-14T18:56:22.876Z,17.23
2022-11-14T18:59:10.339Z,16.20
2022-11-14T19:01:58.603Z,17.33
2022-11-14T19:04:45.615Z,17.50
2022-11-14T19:07:32.736Z,17.40
2022-11-14T19:10:21.284Z,16.23
2022-11-14T19:13:08.675Z,17.40
2022-11-14T19:15:56.087Z,18.47
2022-11-14T19:18:43.545Z,19.23
2022-11-14T19:21:30.539Z,17.67
2022-11-14T19:24:18.150Z,18.70
2022-11-14T19:27:07.098Z,19.23
2022-11-14T19:29:54.800Z,19.77
2022-11-14T19:32:41.884Z,17.23
2022-11-14T19:35:29.639Z,18.97
2022-11-14T19:38:16.793Z,19.23
2022-11-14T19:41:08.096Z,17.67
2022-11-14T19:43:59.825Z,18.10
2022-11-14T19:46:48.315Z,18.87
2022-11-14T19:49:36.218Z,18.60
2022-11-14T19:52:23.414Z,18.07
2022-11-14T19:55:10.683Z,18.60
2022-11-14T19:57:57.663Z,18.07
2022-11-14T20:00:46.212Z,17.23
2022-11-14T20:03:33.764Z,19.30
2022-11-14T20:06:23.636Z,18.43
2022-11-14T20:09:12.076Z,19.90
2022-11-14T20:11:58.847Z,20.47
2022-11-14T20:14:46.175Z,20.60
2022-11-14T20:17:35.554Z,18.57
2022-11-14T20:20:22.547Z,19.23
2022-11-14T20:23:10.121Z,18.73
2022-11-14T20:25:57.472Z,18.20
2022-11-14T20:28:46.786Z,18.63
2022-11-14T20:31:33.813Z,16.63
2022-11-14T20:34:23.112Z,19.10
2022-11-14T20:37:11.979Z,18.53
2022-11-14T20:39:59.098Z,19.07
2022-11-14T20:42:48.513Z,16.63
2022-11-14T20:45:35.765Z,17.80
2022-11-14T20:48:22.980Z,18.33
2022-11-14T20:51:13.994Z,17.87
2022-11-14T20:54:01.546Z,17.30
2022-11-14T20:56:49.306Z,18.37
2022-11-14T20:59:36.404Z,17.23
2022-11-14T21:02:23.435Z,16.93
2022-11-14T21:05:10.853Z,17.97
2022-11-14T21:08:00.403Z,16.60
2022-11-14T21:10:49.889Z,16.07
2022-11-14T21:13:55.150Z,15.67
2022-11-14T21:16:42.692Z,16.03
2022-11-14T21:19:31.282Z,16.33
2022-11-14T21:22:19.086Z,15.77
2022-11-14T21:25:09.125Z,16.33
2022-11-14T21:27:56.655Z,15.67
2022-11-14T21:30:44.564Z,15.27
2022-11-14T21:33:33.310Z,15.93
2022-11-14T21:39:29.263Z,14.90
2022-11-14T21:42:19.012Z,15.20
2022-11-14T21:45:07.686Z,15.17
2022-11-14T21:47:55.405Z,14.63
2022-11-14T21:50:43.248Z,14.53
2022-11-14T21:53:32.768Z,15.00
2022-11-14T21:56:22.323Z,13.97
2022-11-14T21:59:18.936Z,14.00
2022-11-14T22:02:25.612Z,15.03
2022-11-14T22:05:12.638Z,14.00
2022-11-14T22:07:59.752Z,14.00
2022-11-14T22:10:47.295Z,13.20
2022-11-14T22:13:34.718Z,13.70
2022-11-14T22:16:23.569Z,14.90
2022-11-14T22:19:10.954Z,14.37
2022-11-14T22:21:58.461Z,15.03
2022-11-14T22:24:46.163Z,14.43
2022-11-14T22:27:33.134Z,13.77
2022-11-14T22:30:20.581Z,14.37
2022-11-14T22:33:09.695Z,14.17
2022-11-14T22:36:02.609Z,13.87
2022-11-14T22:38:51.500Z,11.90
2022-11-14T22:41:38.599Z,13.57
2022-11-14T22:44:29.976Z,14.30
2022-11-14T22:47:17.392Z,13.63
2022-11-14T22:50:06.752Z,14.10
2022-11-14T22:52:56.371Z,12.17
2022-11-14T22:55:52.250Z,13.43
2022-11-14T22:58:41.394Z,14.63
2022-11-14T23:01:31.395Z,13.43
2022-11-14T23:04:18.580Z,13.23
2022-11-14T23:07:07.118Z,16.27
2022-11-14T23:09:54.494Z,14.63
2022-11-14T23:12:42.003Z,13.47
2022-11-14T23:15:29.251Z,14.13
2022-11-14T23:18:16.510Z,12.80
2022-11-14T23:21:07.451Z,13.83
2022-11-14T23:23:56.443Z,14.10
2022-11-14T23:26:43.922Z,13.43
2022-11-14T23:29:30.986Z,14.40
2022-11-14T23:32:18.189Z,13.70
2022-11-14T23:35:06.937Z,14.97
2022-11-14T23:37:54.039Z,14.07
2022-11-14T23:40:42.958Z,14.73
2022-11-14T23:43:31.873Z,14.50
2022-11-14T23:46:19.616Z,13.77
2022-11-14T23:49:06.874Z,14.87
2022-11-14T23:51:54.072Z,13.23
2022-11-14T23:54:40.887Z,14.20
2022-11-14T23:57:30.021Z,14.23
